Time;durP1;ratioP1;P1;durP2;ratioP2;P2;SDS_P1;SDS_P2;PMS_P1;PMS_P2;Temp;Humidity;BMP_temperature;BMP_pressure;BME280_temperature;BME280_humidity;BME280_pressure;Samples;Min_cycle;Max_cycle;Signal;HPM_P1;HPM_P2
2022/07/24 00:02:21;;;;;;;16.17;11.77;;;;;;;20.81;100.00;96988.31;5056419;28;20031;-67
2022/07/24 00:04:46;;;;;;;16.98;12.18;;;;;;;20.47;100.00;96994.09;5074714;28;20043;-68
2022/07/24 00:07:12;;;;;;;19.90;13.70;;;;;;;20.05;100.00;96997.22;5073937;28;20055;-68
2022/07/24 00:09:38;;;;;;;16.90;13.77;;;;;;;20.02;100.00;97003.59;5074270;28;20028;-68
2022/07/24 00:12:04;;;;;;;16.13;12.95;;;;;;;19.96;100.00;96994.19;5074178;28;20047;-68
2022/07/24 00:14:30;;;;;;;19.13;13.60;;;;;;;19.92;100.00;96999.81;5074226;28;20024;-68
2022/07/24 00:16:55;;;;;;;18.90;13.45;;;;;;;19.87;100.00;97000.28;5073967;28;20560;-67
2022/07/24 00:19:21;;;;;;;14.57;11.45;;;;;;;19.87;100.00;96994.72;5074298;28;20492;-67
2022/07/24 00:21:46;;;;;;;16.83;13.05;;;;;;;19.76;100.00;96989.31;5079299;28;20206;-67
2022/07/24 00:24:11;;;;;;;18.27;12.25;;;;;;;19.72;100.00;96996.91;5065642;28;20443;-67
2022/07/24 00:26:37;;;;;;;18.45;12.80;;;;;;;19.74;100.00;96991.75;5075575;28;20500;-67
2022/07/24 00:29:03;;;;;;;17.10;13.30;;;;;;;19.81;100.00;97002.75;5073001;28;20036;-67
2022/07/24 00:31:29;;;;;;;16.88;13.20;;;;;;;19.81;100.00;97004.75;5056258;28;20489;-67
2022/07/24 00:33:54;;;;;;;18.27;13.13;;;;;;;19.78;100.00;96997.25;5074261;28;20032;-67
2022/07/24 00:36:20;;;;;;;22.13;14.20;;;;;;;19.70;100.00;97004.88;5084216;28;20024;-68
2022/07/24 00:38:45;;;;;;;19.25;13.77;;;;;;;19.68;100.00;97010.84;5092525;28;20043;-68
2022/07/24 00:41:11;;;;;;;15.27;12.50;;;;;;;19.81;100.00;97002.75;5094371;28;20031;-71
2022/07/24 00:44:02;;;;;;;17.20;12.25;;;;;;;19.84;100.00;97001.09;5076821;28;20082;-68
2022/07/24 00:46:28;;;;;;;18.42;12.48;;;;;;;19.88;100.00;96993.53;5087080;28;20048;-69
2022/07/24 00:48:53;;;;;;;18.08;13.68;;;;;;;19.72;100.00;96985.78;5085347;28;20037;-68
2022/07/24 00:51:19;;;;;;;17.52;13.45;;;;;;;19.13;100.00;96980.69;5074062;28;20495;-68
2022/07/24 00:53:44;;;;;;;20.13;15.05;;;;;;;18.82;100.00;96981.44;5073558;28;20155;-68
2022/07/24 00:56:10;;;;;;;18.35;13.68;;;;;;;19.00;100.00;96983.22;5071990;28;20032;-68
2022/07/24 00:58:35;;;;;;;18.75;14.63;;;;;;;19.10;100.00;96991.41;5072677;28;20029;-68
2022/07/24 01:01:01;;;;;;;18.45;14.02;;;;;;;19.24;100.00;96984.88;5073137;28;20039;-68
2022/07/24 01:03:26;;;;;;;19.10;14.70;;;;;;;19.40;100.00;96992.59;5073429;28;20037;-68
2022/07/24 01:05:51;;;;;;;20.52;14.00;;;;;;;19.48;100.00;96987.72;5072792;28;20068;-68
2022/07/24 01:08:17;;;;;;;20.73;14.40;;;;;;;19.47;100.00;96983.38;5072165;28;20028;-68
2022/07/24 01:10:43;;;;;;;19.73;13.82;;;;;;;19.46;100.00;96984.56;5073019;28;20040;-68
2022/07/24 01:13:09;;;;;;;21.45;14.13;;;;;;;19.40;100.00;96984.25;5073177;28;20245;-68
2022/07/24 01:15:34;;;;;;;20.15;14.43;;;;;;;19.28;100.00;96990.38;5072889;28;20458;-68
2022/07/24 01:17:59;;;;;;;19.55;16.15;;;;;;;19.04;100.00;96978.41;5072943;28;20034;-68
2022/07/24 01:20:25;;;;;;;21.45;15.25;;;;;;;18.78;100.00;96985.41;5072870;28;20039;-68
2022/07/24 01:22:50;;;;;;;20.95;15.68;;;;;;;18.77;100.00;96981.09;5072987;28;20115;-67
2022/07/24 01:25:16;;;;;;;16.05;12.52;;;;;;;18.83;100.00;96994.09;5072776;28;20050;-68
2022/07/24 01:27:41;;;;;;;17.95;13.32;;;;;;;18.96;100.00;96986.03;5072447;28;20056;-68
2022/07/24 01:30:07;;;;;;;18.77;13.80;;;;;;;19.13;100.00;96983.44;5072636;28;20697;-68
2022/07/24 01:32:33;;;;;;;20.98;14.32;;;;;;;19.25;100.00;96985.69;5072597;28;20028;-68
2022/07/24 01:34:58;;;;;;;16.25;13.65;;;;;;;19.38;100.00;96988.69;5072639;28;20376;-68
2022/07/24 01:37:23;;;;;;;18.20;13.25;;;;;;;19.43;100.00;96982.66;5072486;28;20111;-68
2022/07/24 01:39:49;;;;;;;14.52;12.25;;;;;;;19.44;100.00;96985.00;5072658;28;20036;-67
2022/07/24 01:42:14;;;;;;;14.63;11.82;;;;;;;19.36;100.00;96986.31;5080138;28;20033;-68
2022/07/24 01:44:40;;;;;;;20.67;12.13;;;;;;;19.39;100.00;96985.47;5091386;28;20043;-68
2022/07/24 01:47:05;;;;;;;14.00;12.10;;;;;;;19.36;100.00;96988.31;5081032;28;20024;-68
2022/07/24 01:49:30;;;;;;;17.20;12.73;;;;;;;19.28;100.00;96991.19;5072458;28;20028;-68
2022/07/24 01:51:56;;;;;;;15.88;11.88;;;;;;;19.27;100.00;96997.16;5072382;28;20449;-68
2022/07/24 01:54:21;;;;;;;17.77;12.00;;;;;;;19.14;100.00;96987.78;5072365;28;20071;-68
2022/07/24 01:56:46;;;;;;;19.40;13.32;;;;;;;19.12;100.00;96993.75;5071976;28;20400;-68
2022/07/24 01:59:13;;;;;;;15.73;11.90;;;;;;;19.14;100.00;96993.34;5054162;28;20561;-68
2022/07/24 02:01:39;;;;;;;18.95;12.85;;;;;;;19.22;100.00;96997.59;5072058;28;20115;-67
2022/07/24 02:04:04;;;;;;;17.20;12.70;;;;;;;19.27;100.00;96992.38;5072072;28;20021;-68
2022/07/24 02:06:29;;;;;;;14.90;12.20;;;;;;;19.24;100.00;96984.88;5071835;28;20033;-68
2022/07/24 02:08:55;;;;;;;20.13;12.45;;;;;;;19.32;100.00;96993.09;5077259;28;20092;-69
2022/07/24 02:11:20;;;;;;;15.98;11.90;;;;;;;19.29;100.00;96992.75;5094562;28;20039;-68
2022/07/24 02:13:46;;;;;;;15.68;12.13;;;;;;;19.27;100.00;96981.25;5081594;28;20400;-68
2022/07/24 02:16:11;;;;;;;16.80;12.05;;;;;;;19.33;100.00;96984.38;5071552;28;20392;-66
2022/07/24 02:18:37;;;;;;;16.17;12.60;;;;;;;19.35;100.00;96978.38;5071820;28;20481;-67
2022/07/24 02:21:03;;;;;;;15.23;11.07;;;;;;;19.34;100.00;96979.59;5070584;28;20489;-66
2022/07/24 02:23:28;;;;;;;15.48;11.57;;;;;;;19.36;100.00;96988.31;5071879;28;20040;-68
2022/07/24 02:25:53;;;;;;;15.45;12.18;;;;;;;19.37;100.00;96985.09;5071201;28;20056;-67
2022/07/24 02:28:19;;;;;;;18.63;11.55;;;;;;;19.30;100.00;96990.75;5071638;28;20033;-66
2022/07/24 02:30:44;;;;;;;15.75;11.70;;;;;;;19.27;100.00;96989.59;5053594;28;20036;-67
2022/07/24 02:33:10;;;;;;;17.20;11.80;;;;;;;19.28;100.00;96985.63;5071484;28;20056;-67
2022/07/24 02:35:37;;;;;;;20.35;11.05;;;;;;;19.31;100.00;96988.78;5070113;28;20028;-68
2022/07/24 02:38:03;;;;;;;13.55;11.77;;;;;;;19.39;100.00;96990.22;5071530;28;20039;-68
2022/07/24 02:40:30;;;;;;;17.10;11.65;;;;;;;19.33;100.00;96991.91;5071284;28;20044;-68
2022/07/24 02:42:55;;;;;;;17.23;12.02;;;;;;;19.29;100.00;96980.84;5071429;28;20434;-68
2022/07/24 02:45:20;;;;;;;20.33;12.52;;;;;;;19.25;100.00;96983.69;5071087;28;20123;-68
2022/07/24 02:47:54;;;;;;;16.77;12.77;;;;;;;19.22;100.00;96984.50;5070002;28;20024;-68
2022/07/24 02:50:22;;;;;;;18.92;12.43;;;;;;;19.31;100.00;96991.56;5071227;28;20037;-66
2022/07/24 02:52:47;;;;;;;15.95;11.57;;;;;;;19.28;100.00;96980.06;5071374;28;20032;-68
2022/07/24 02:55:13;;;;;;;19.48;12.50;;;;;;;19.32;100.00;96985.59;5071263;28;20358;-68
2022/07/24 02:57:39;;;;;;;15.02;11.38;;;;;;;19.36;100.00;96991.09;5071053;28;20054;-68
2022/07/24 03:00:08;;;;;;;17.58;12.65;;;;;;;19.34;100.00;96991.50;5071508;28;20200;-69
2022/07/24 03:02:33;;;;;;;15.77;12.73;;;;;;;19.30;100.00;96987.97;5086439;28;20085;-68
2022/07/24 03:04:59;;;;;;;18.45;12.65;;;;;;;19.22;100.00;96992.06;5083416;28;20037;-68
2022/07/24 03:07:24;;;;;;;23.25;12.68;;;;;;;19.17;100.00;96987.75;5082856;28;20411;-68
2022/07/24 03:09:50;;;;;;;16.33;12.00;;;;;;;19.09;100.00;96989.06;5081958;28;20051;-68
2022/07/24 03:12:15;;;;;;;16.70;12.32;;;;;;;19.11;100.00;96992.19;5071366;28;20048;-67
2022/07/24 03:14:40;;;;;;;15.95;12.43;;;;;;;19.02;100.00;96992.69;5071012;28;20040;-68
2022/07/24 03:17:06;;;;;;;20.25;12.23;;;;;;;18.94;100.00;96987.66;5070865;28;20033;-67
2022/07/24 03:19:31;;;;;;;19.40;13.38;;;;;;;18.85;100.00;96988.94;5069748;28;20035;-68
2022/07/24 03:21:57;;;;;;;19.95;13.88;;;;;;;18.71;100.00;96995.41;5091565;22;20052;-66
2022/07/24 03:24:22;;;;;;;20.33;14.10;;;;;;;18.57;100.00;96994.78;5074559;28;20701;-66
2022/07/24 03:26:47;;;;;;;20.95;13.93;;;;;;;18.45;100.00;96996.09;5074480;28;20447;-66
2022/07/24 03:29:13;;;;;;;18.75;13.13;;;;;;;18.30;100.00;97000.97;5074660;28;20025;-67
2022/07/24 03:31:38;;;;;;;17.58;14.10;;;;;;;18.20;100.00;96999.09;5074523;28;20036;-67
2022/07/24 03:34:03;;;;;;;18.90;13.48;;;;;;;18.16;100.00;96996.34;5074700;28;20033;-66
2022/07/24 03:36:29;;;;;;;18.73;12.48;;;;;;;18.29;100.00;96988.31;5074630;28;20037;-66
2022/07/24 03:38:54;;;;;;;20.35;13.95;;;;;;;18.38;100.00;96990.59;5074571;28;20032;-66
2022/07/24 03:41:20;;;;;;;14.25;12.07;;;;;;;18.46;100.00;96997.66;5074503;28;20033;-66
2022/07/24 03:43:45;;;;;;;17.40;11.65;;;;;;;18.44;100.00;97002.81;5074429;28;20024;-67
2022/07/24 03:46:10;;;;;;;14.18;11.88;;;;;;;18.33;100.00;97000.94;5074134;28;20090;-67
2022/07/24 03:48:36;;;;;;;19.13;13.30;;;;;;;18.31;100.00;97000.59;5074241;28;20081;-66
2022/07/24 03:51:02;;;;;;;22.77;13.70;;;;;;;18.32;100.00;97004.91;5074411;28;20382;-66
2022/07/24 03:53:27;;;;;;;17.45;12.98;;;;;;;18.34;100.00;96996.97;5074338;28;20861;-66
2022/07/24 03:55:52;;;;;;;19.48;12.40;;;;;;;18.58;100.00;97001.88;5073931;28;20047;-65
2022/07/24 03:58:18;;;;;;;17.17;12.70;;;;;;;18.71;100.00;97012.06;5074033;28;20037;-64
2022/07/24 04:00:43;;;;;;;21.17;13.27;;;;;;;18.87;100.00;97002.38;5074013;28;20036;-64
2022/07/24 04:03:08;;;;;;;23.65;13.00;;;;;;;18.88;100.00;97009.53;5074307;28;20410;-65
2022/07/24 04:05:34;;;;;;;21.10;13.63;;;;;;;18.76;100.00;97004.47;5073790;28;20366;-65
2022/07/24 04:08:00;;;;;;;22.30;13.95;;;;;;;18.59;100.00;97009.03;5074203;28;20086;-65
2022/07/24 04:10:25;;;;;;;16.23;12.27;;;;;;;18.54;100.00;97008.25;5074064;28;20024;-65
2022/07/24 04:12:52;;;;;;;19.90;12.93;;;;;;;18.59;100.00;97011.78;5073984;28;20040;-65
2022/07/24 04:15:17;;;;;;;15.65;12.15;;;;;;;18.65;100.00;97015.69;5073906;28;20028;-63
2022/07/24 04:17:43;;;;;;;17.90;11.45;;;;;;;18.75;100.00;97017.56;5056108;28;20028;-65
2022/07/24 04:20:10;;;;;;;16.80;11.55;;;;;;;18.86;100.00;97025.81;5074608;28;20059;-65
2022/07/24 04:22:35;;;;;;;17.73;10.93;;;;;;;18.93;100.00;97028.50;5073604;28;20029;-65
2022/07/24 04:25:01;;;;;;;14.43;11.48;;;;;;;19.03;100.00;97027.59;5073916;28;20032;-65
2022/07/24 04:27:26;;;;;;;18.40;12.13;;;;;;;19.16;100.00;97030.59;5073449;28;20032;-65
2022/07/24 04:29:52;;;;;;;15.68;10.48;;;;;;;19.18;100.00;97028.19;5075415;28;20115;-65
2022/07/24 04:32:17;;;;;;;14.68;11.27;;;;;;;19.22;100.00;97017.03;5080914;28;20449;-65
2022/07/24 04:34:42;;;;;;;17.60;11.68;;;;;;;19.17;100.00;97020.28;5074378;28;20032;-67
2022/07/24 04:37:08;;;;;;;15.13;10.40;;;;;;;19.14;100.00;97023.88;5073085;28;20108;-67
2022/07/24 04:39:33;;;;;;;13.20;10.38;;;;;;;19.31;100.00;97013.75;5073243;28;20043;-65
2022/07/24 04:41:58;;;;;;;12.95;9.98;;;;;;;19.49;100.00;97025.41;5073379;28;20032;-65
2022/07/24 04:44:24;;;;;;;17.80;11.05;;;;;;;19.57;100.00;97017.75;5073404;28;20032;-64
2022/07/24 04:46:49;;;;;;;13.48;9.82;;;;;;;19.67;100.00;97020.38;5055123;28;20032;-63
2022/07/24 04:49:15;;;;;;;16.45;10.40;;;;;;;19.70;100.00;97026.31;5073614;28;20025;-65
2022/07/24 04:51:40;;;;;;;16.15;9.43;;;;;;;19.92;100.00;97032.38;5073247;28;20032;-64
2022/07/24 04:54:06;;;;;;;14.63;9.32;;;;;;;20.10;100.00;97026.53;5073872;28;20082;-67
2022/07/24 04:56:32;;;;;;;10.77;9.48;;;;;;;20.33;100.00;97022.94;5072550;28;20017;-67
2022/07/24 04:58:58;;;;;;;15.52;9.65;;;;;;;20.55;100.00;97023.38;5072011;28;20055;-64
2022/07/24 05:01:23;;;;;;;18.15;9.00;;;;;;;20.73;100.00;97032.22;5072680;28;20028;-66
2022/07/24 05:03:49;;;;;;;13.43;9.20;;;;;;;20.91;100.00;97031.09;5072764;28;20040;-66
2022/07/24 05:06:14;;;;;;;15.27;9.32;;;;;;;21.12;100.00;97032.66;5072385;28;20107;-65
2022/07/24 05:08:39;;;;;;;12.57;8.68;;;;;;;21.60;100.00;97033.28;5072827;28;20129;-66
2022/07/24 05:11:05;;;;;;;12.90;8.85;;;;;;;22.61;100.00;97032.47;5055046;28;20032;-66
2022/07/24 05:13:30;;;;;;;13.93;8.80;;;;;;;23.62;100.00;97036.06;5072656;28;20059;-65
2022/07/24 05:15:56;;;;;;;12.18;8.27;;;;;;;24.16;100.00;97030.81;5054308;28;20032;-66
2022/07/24 05:18:21;;;;;;;15.10;8.77;;;;;;;24.23;100.00;97036.16;5072561;28;20032;-65
2022/07/24 05:20:47;;;;;;;12.10;8.90;;;;;;;24.91;96.98;97047.13;5072589;28;20036;-66
2022/07/24 05:23:12;;;;;;;10.30;7.32;;;;;;;25.49;93.38;97037.44;5072239;28;20063;-65
2022/07/24 05:25:37;;;;;;;12.02;7.88;;;;;;;24.61;95.37;97047.34;5072245;28;20051;-66
2022/07/24 05:28:03;;;;;;;10.40;8.60;;;;;;;24.67;96.58;97043.94;5072474;28;20586;-65
2022/07/24 05:30:29;;;;;;;18.60;9.27;;;;;;;24.54;94.48;97033.59;5072282;28;20527;-66
2022/07/24 05:32:54;;;;;;;14.57;8.25;;;;;;;24.52;98.88;97036.00;5072209;28;20031;-66
2022/07/24 05:35:20;;;;;;;13.68;8.80;;;;;;;24.49;97.58;97044.50;5054621;28;20063;-65
2022/07/24 05:37:45;;;;;;;16.23;12.32;;;;;;;24.00;100.00;97042.91;5072432;28;20111;-67
2022/07/24 05:40:11;;;;;;;11.30;7.80;;;;;;;26.04;90.53;97046.16;5072143;28;20134;-66
2022/07/24 05:42:36;;;;;;;11.40;7.28;;;;;;;26.57;87.12;97045.19;5072219;28;20024;-67
2022/07/24 05:45:03;;;;;;;12.95;7.95;;;;;;;26.12;86.10;97044.59;5071702;28;20489;-67
2022/07/24 05:47:35;;;;;;;11.68;7.75;;;;;;;26.60;84.83;97051.91;5070483;28;20046;-68
2022/07/24 05:50:00;;;;;;;12.10;6.45;;;;;;;28.04;77.38;97046.31;5054142;28;20021;-66
2022/07/24 05:52:26;;;;;;;10.00;7.38;;;;;;;26.51;79.62;97049.84;5053874;28;20393;-66
2022/07/24 05:54:51;;;;;;;11.73;7.10;;;;;;;26.85;79.83;97051.66;5071793;28;20024;-67
2022/07/24 05:57:16;;;;;;;13.25;7.68;;;;;;;27.43;75.97;97049.13;5053693;28;20024;-68
2022/07/24 05:59:42;;;;;;;7.90;7.10;;;;;;;27.20;75.94;97042.88;5071961;28;20495;-67
2022/07/24 06:02:07;;;;;;;13.52;6.63;;;;;;;28.64;72.84;97050.25;5072081;28;20468;-67
2022/07/24 06:04:34;;;;;;;8.95;6.85;;;;;;;30.27;64.63;97043.16;5071540;28;20110;-67
2022/07/24 06:06:59;;;;;;;10.27;5.97;;;;;;;31.67;57.46;97049.00;5070567;28;20439;-67
2022/07/24 06:09:24;;;;;;;12.18;6.63;;;;;;;30.29;57.35;97052.72;5071754;28;20040;-66
2022/07/24 06:11:50;;;;;;;11.02;7.03;;;;;;;29.58;61.42;97048.22;5072511;28;20074;-66
2022/07/24 06:14:16;;;;;;;11.02;6.93;;;;;;;29.62;62.75;97049.59;5080861;28;20024;-67
2022/07/24 06:16:41;;;;;;;10.32;6.43;;;;;;;30.43;57.32;97050.38;5076685;28;20052;-67
2022/07/24 06:19:06;;;;;;;11.52;8.07;;;;;;;26.73;72.82;97051.78;5072082;28;20024;-66
2022/07/24 06:21:32;;;;;;;12.32;8.73;;;;;;;28.19;69.07;97047.19;5088638;28;20029;-66
2022/07/24 06:23:57;;;;;;;9.88;6.80;;;;;;;29.55;61.45;97038.69;5084501;28;20054;-67
2022/07/24 06:26:23;;;;;;;10.93;7.30;;;;;;;26.87;71.81;97051.94;5086105;28;20043;-66
2022/07/24 06:28:48;;;;;;;13.25;7.53;;;;;;;27.18;70.67;97053.81;5079285;28;20033;-66
2022/07/24 06:31:13;;;;;;;10.57;8.07;;;;;;;25.16;83.31;97041.41;5071773;28;20392;-66
2022/07/24 06:33:39;;;;;;;11.85;7.82;;;;;;;26.69;77.51;97046.31;5071343;28;20040;-67
2022/07/24 06:36:04;;;;;;;10.13;8.15;;;;;;;28.36;68.47;97044.75;5070977;28;20032;-66
2022/07/24 06:38:30;;;;;;;12.23;9.38;;;;;;;28.54;67.18;97048.72;5071139;28;20108;-67
2022/07/24 06:40:55;;;;;;;14.00;9.15;;;;;;;26.04;76.14;97054.56;5071066;28;20032;-66
2022/07/24 06:43:20;;;;;;;12.82;8.95;;;;;;;26.66;78.82;97058.50;5071228;28;20047;-69
2022/07/24 06:45:46;;;;;;;9.43;7.40;;;;;;;29.26;64.56;97053.53;5070685;28;20047;-66
2022/07/24 06:48:11;;;;;;;10.43;8.25;;;;;;;30.12;60.70;97060.16;5071050;28;20071;-66
2022/07/24 06:50:37;;;;;;;13.90;8.50;;;;;;;29.41;61.96;97053.56;5071218;28;20032;-67
2022/07/24 06:53:02;;;;;;;11.05;8.00;;;;;;;29.91;59.70;97057.28;5058552;28;20115;-66
2022/07/24 06:55:28;;;;;;;12.38;8.38;;;;;;;29.05;64.98;97047.75;5090368;28;20058;-66
2022/07/24 06:57:53;;;;;;;8.55;7.72;;;;;;;30.49;58.25;97057.66;5090129;28;20062;-68
2022/07/24 07:00:18;;;;;;;10.40;7.00;;;;;;;31.70;55.47;97052.91;5079787;28;20040;-67
2022/07/24 07:02:45;;;;;;;10.70;8.85;;;;;;;28.44;65.23;97050.81;5071023;28;20481;-67
2022/07/24 07:05:10;;;;;;;8.88;7.20;;;;;;;29.67;62.92;97046.06;5070786;28;20392;-67
2022/07/24 07:07:37;;;;;;;12.05;8.68;;;;;;;30.36;61.44;97056.44;5070938;28;20024;-67
2022/07/24 07:10:03;;;;;;;8.90;7.75;;;;;;;32.40;53.11;97048.81;5070846;28;20396;-67
2022/07/24 07:12:29;;;;;;;10.57;8.82;;;;;;;30.31;58.78;97053.00;5070809;28;20045;-67
2022/07/24 07:14:55;;;;;;;12.65;8.30;;;;;;;29.77;60.27;97043.19;5070918;28;20425;-67
2022/07/24 07:17:20;;;;;;;12.32;9.68;;;;;;;27.07;74.74;97050.72;5070587;28;20036;-67
2022/07/24 07:19:45;;;;;;;15.38;9.73;;;;;;;28.05;71.54;97036.59;5070726;28;20060;-67
2022/07/24 07:22:11;;;;;;;15.40;9.23;;;;;;;29.57;64.20;97041.81;5070567;28;20051;-67
2022/07/24 07:24:36;;;;;;;11.18;8.68;;;;;;;30.87;59.25;97050.19;5052480;28;20090;-67
2022/07/24 07:27:02;;;;;;;9.27;8.10;;;;;;;31.48;56.93;97051.44;5070366;28;20028;-67
2022/07/24 07:29:27;;;;;;;10.77;9.15;;;;;;;30.53;58.55;97057.44;5052781;28;20025;-67
2022/07/24 07:31:53;;;;;;;10.18;6.88;;;;;;;32.62;52.97;97053.88;5070570;28;20040;-68
2022/07/24 07:34:18;;;;;;;9.98;8.02;;;;;;;32.07;54.71;97052.19;5070758;28;20043;-68
2022/07/24 07:36:43;;;;;;;11.32;8.60;;;;;;;31.90;53.80;97055.66;5052244;28;20033;-68
2022/07/24 07:39:09;;;;;;;10.05;8.20;;;;;;;32.57;52.44;97055.38;5070622;28;20032;-68
2022/07/24 07:41:35;;;;;;;7.38;6.43;;;;;;;34.67;46.41;97051.56;5070689;28;20024;-69
2022/07/24 07:44:01;;;;;;;11.30;7.50;;;;;;;35.59;44.04;97062.03;5070427;28;20038;-67
2022/07/24 07:46:26;;;;;;;10.40;7.28;;;;;;;32.27;51.90;97046.44;5052559;28;20028;-69
2022/07/24 07:48:52;;;;;;;10.38;8.02;;;;;;;32.41;51.15;97043.94;5070485;28;20028;-68
2022/07/24 07:51:18;;;;;;;14.18;9.70;;;;;;;31.92;51.04;97043.81;5070483;28;20044;-67
2022/07/24 07:53:43;;;;;;;10.75;8.50;;;;;;;29.95;59.97;97039.38;5070466;28;20468;-68
2022/07/24 07:56:08;;;;;;;11.82;8.40;;;;;;;30.70;57.17;97037.88;5070832;28;20112;-68
2022/07/24 07:58:34;;;;;;;14.27;10.43;;;;;;;30.28;57.36;97036.25;5080081;28;20028;-68
2022/07/24 08:01:00;;;;;;;9.73;8.63;;;;;;;31.58;54.31;97041.47;5072826;28;20075;-68
2022/07/24 08:03:25;;;;;;;11.00;8.95;;;;;;;31.73;53.14;97040.56;5072747;28;20115;-67
2022/07/24 08:05:50;;;;;;;10.85;8.93;;;;;;;31.99;50.59;97040.53;5069786;28;20618;-67
2022/07/24 08:08:16;;;;;;;11.77;10.00;;;;;;;28.68;62.51;97039.56;5073533;28;20036;-66
2022/07/24 08:10:41;;;;;;;11.52;10.20;;;;;;;28.14;66.06;97028.13;5073969;28;20086;-67
2022/07/24 08:13:07;;;;;;;10.85;8.85;;;;;;;29.75;61.49;97026.75;5073876;28;20423;-67
2022/07/24 08:15:33;;;;;;;13.80;11.13;;;;;;;26.66;73.35;97031.16;5073645;28;20119;-66
2022/07/24 08:17:58;;;;;;;13.48;10.50;;;;;;;28.08;70.67;97023.63;5073733;28;20536;-66
2022/07/24 08:20:25;;;;;;;13.13;10.02;;;;;;;29.77;61.30;97018.56;5073838;28;20043;-67
2022/07/24 08:22:51;;;;;;;12.43;9.27;;;;;;;31.49;55.59;97023.88;5073420;28;20409;-67
2022/07/24 08:25:17;;;;;;;13.23;8.23;;;;;;;32.94;50.19;97025.38;5073632;28;20032;-66
2022/07/24 08:27:43;;;;;;;11.85;9.30;;;;;;;32.35;51.39;97029.72;5073612;28;20051;-66
2022/07/24 08:30:10;;;;;;;13.07;9.75;;;;;;;29.04;63.72;97020.03;5073936;28;20025;-66
2022/07/24 08:32:35;;;;;;;13.68;10.35;;;;;;;28.36;69.93;97024.25;5073977;28;20116;-68
2022/07/24 08:35:01;;;;;;;14.85;10.82;;;;;;;28.14;71.21;97016.84;5073709;28;20107;-66
2022/07/24 08:37:26;;;;;;;14.63;10.80;;;;;;;28.15;70.23;97015.59;5073600;28;20044;-67
2022/07/24 08:39:54;;;;;;;15.15;9.68;;;;;;;28.91;68.58;97023.88;5073513;28;20032;-68
2022/07/24 08:42:19;;;;;;;13.75;9.10;;;;;;;31.06;59.54;97025.25;5073614;28;20067;-67
2022/07/24 08:44:45;;;;;;;11.95;10.27;;;;;;;30.78;57.78;97024.13;5073338;28;20059;-67
2022/07/24 08:47:11;;;;;;;14.05;11.77;;;;;;;27.98;68.77;97018.03;5055238;28;20696;-66
2022/07/24 08:49:37;;;;;;;19.08;10.30;;;;;;;28.82;68.44;97011.91;5073702;28;20032;-68
2022/07/24 08:52:07;;;;;;;15.57;11.05;;;;;;;29.76;62.28;97019.81;5079739;28;20035;-68
2022/07/24 08:54:34;;;;;;;12.15;9.32;;;;;;;29.61;64.84;97019.81;5080024;28;20059;-66
2022/07/24 08:56:59;;;;;;;15.20;9.77;;;;;;;31.58;57.44;97020.88;5073384;28;20517;-66
2022/07/24 08:59:25;;;;;;;14.65;10.00;;;;;;;32.62;52.68;97017.00;5055320;28;20059;-67
2022/07/24 09:01:51;;;;;;;10.70;9.18;;;;;;;32.72;51.56;97023.25;5073182;28;20033;-68
2022/07/24 09:04:39;;;;;;;11.18;9.07;;;;;;;32.27;54.05;97022.97;5038503;28;20048;-68
2022/07/24 09:07:10;;;;;;;13.57;9.75;;;;;;;33.66;49.50;97031.78;5073010;28;20036;-67
2022/07/24 09:09:37;;;;;;;12.10;10.80;;;;;;;32.28;54.09;97018.84;5072902;28;20032;-66
2022/07/24 09:12:08;;;;;;;12.77;10.57;;;;;;;33.68;50.18;97018.59;5071574;28;20032;-67
2022/07/24 09:14:35;;;;;;;12.77;10.23;;;;;;;33.83;48.47;97024.03;5072538;28;20388;-67
2022/07/24 09:17:06;;;;;;;11.90;10.63;;;;;;;33.13;49.79;97028.56;5072442;28;20138;-68
2022/07/24 09:19:44;;;;;;;14.20;12.20;;;;;;;28.49;65.83;97019.16;5072060;28;20493;-68
2022/07/24 09:22:16;;;;;;;16.00;11.15;;;;;;;31.42;56.92;97022.25;5072580;28;20416;-67
2022/07/24 09:24:41;;;;;;;13.90;11.32;;;;;;;31.56;55.67;97021.38;5072751;28;20101;-67
2022/07/24 09:27:13;;;;;;;12.68;10.50;;;;;;;32.35;53.87;97012.72;5072241;28;20032;-66
2022/07/24 09:29:39;;;;;;;15.52;11.43;;;;;;;30.40;59.37;97012.59;5072508;28;20098;-67
2022/07/24 09:32:04;;;;;;;15.05;11.43;;;;;;;29.08;65.17;97004.50;5072530;28;20119;-68
2022/07/24 09:34:39;;;;;;;15.63;10.25;;;;;;;28.48;70.90;97006.31;5072549;28;20028;-67
2022/07/24 09:37:06;;;;;;;16.60;11.63;;;;;;;28.24;73.15;97002.75;5071998;28;20035;-67
2022/07/24 09:39:35;;;;;;;15.07;9.85;;;;;;;30.41;62.52;97002.03;5072194;28;20028;-68
2022/07/24 09:42:01;;;;;;;12.40;9.82;;;;;;;32.10;56.26;96998.13;5072314;28;20035;-67
2022/07/24 09:44:29;;;;;;;12.68;9.23;;;;;;;32.94;52.81;96997.78;5072757;28;20481;-67
2022/07/24 09:47:04;;;;;;;21.98;15.05;;;;;;;28.52;65.39;96998.50;5082907;28;20078;-67
2022/07/24 09:49:30;;;;;;;18.20;14.70;;;;;;;28.60;68.25;96994.06;5074644;28;20028;-69
2022/07/24 09:52:07;;;;;;;14.13;10.00;;;;;;;30.48;63.19;96993.91;5072426;28;20578;-67
2022/07/24 09:54:35;;;;;;;13.02;10.45;;;;;;;31.61;57.25;96991.56;5071965;28;20112;-68
2022/07/24 09:57:26;;;;;;;13.35;10.25;;;;;;;31.03;58.86;96991.53;5071311;28;20039;-67
2022/07/24 09:59:57;;;;;;;14.88;11.10;;;;;;;31.57;58.13;96991.03;5054545;28;20434;-67
2022/07/24 10:02:25;;;;;;;12.50;9.73;;;;;;;31.82;57.02;96989.44;5073246;28;20036;-67
2022/07/24 10:04:52;;;;;;;14.63;10.25;;;;;;;31.65;58.03;96982.84;5071792;28;20064;-68
2022/07/24 10:07:20;;;;;;;15.23;11.18;;;;;;;31.03;59.01;96988.69;5071863;28;20032;-68
2022/07/24 10:09:48;;;;;;;14.82;11.02;;;;;;;30.61;60.07;96993.59;5071714;28;20040;-66
2022/07/24 10:12:22;;;;;;;13.52;10.07;;;;;;;29.53;65.17;96977.09;5072213;28;20634;-66
2022/07/24 10:14:51;;;;;;;17.33;10.45;;;;;;;30.54;61.91;96981.91;5071582;28;20028;-66
2022/07/24 10:17:17;;;;;;;16.60;10.77;;;;;;;30.64;60.69;96988.97;5071817;28;20032;-66
2022/07/24 10:19:45;;;;;;;12.93;10.80;;;;;;;30.56;61.37;96985.03;5072019;28;20129;-67
2022/07/24 10:22:14;;;;;;;13.02;10.43;;;;;;;30.56;61.22;96985.03;5071242;28;20034;-67
2022/07/24 10:25:04;;;;;;;14.73;10.07;;;;;;;31.00;59.39;96987.63;5071712;28;20029;-69
2022/07/24 10:27:31;;;;;;;16.70;10.75;;;;;;;31.04;58.42;96981.75;5071765;28;20556;-68
2022/07/24 10:30:00;;;;;;;11.07;9.38;;;;;;;31.40;58.40;96988.00;5070942;28;20033;-68
2022/07/24 10:32:27;;;;;;;11.18;9.52;;;;;;;31.84;55.91;96978.38;5070969;28;20032;-67
2022/07/24 10:35:14;;;;;;;13.60;9.57;;;;;;;32.01;56.00;96982.06;5071396;28;20434;-68
2022/07/24 10:37:50;;;;;;;14.20;11.32;;;;;;;31.43;58.10;96982.13;5071209;28;20044;-68
2022/07/24 10:40:39;;;;;;;12.60;11.18;;;;;;;30.92;59.30;96975.22;5071892;28;20481;-69
2022/07/24 10:43:04;;;;;;;14.57;10.98;;;;;;;30.84;59.91;96969.16;5072464;28;20032;-67
2022/07/24 10:45:31;;;;;;;13.77;9.73;;;;;;;31.26;59.95;96967.06;5071313;28;20033;-68
2022/07/24 10:47:57;;;;;;;15.07;10.35;;;;;;;31.80;56.37;96967.28;5071209;28;20397;-67
2022/07/24 10:50:23;;;;;;;11.82;9.48;;;;;;;31.38;56.54;96962.28;5071241;28;20040;-68
2022/07/24 10:52:49;;;;;;;10.32;8.23;;;;;;;30.51;60.85;96963.91;5071061;28;20460;-69
2022/07/24 10:55:31;;;;;;;10.13;8.45;;;;;;;30.99;60.58;96959.84;5070942;28;20028;-68
2022/07/24 10:58:02;;;;;;;14.02;9.50;;;;;;;31.64;56.13;96959.44;5071018;28;20500;-69
2022/07/24 11:00:32;;;;;;;12.00;9.02;;;;;;;31.86;55.97;96950.31;5071264;28;20358;-67
2022/07/24 11:03:07;;;;;;;11.63;7.85;;;;;;;31.96;52.77;96951.69;5071459;28;20089;-67
2022/07/24 11:05:35;;;;;;;10.60;9.25;;;;;;;31.74;53.75;96946.63;5071174;28;20077;-67
2022/07/24 11:08:16;;;;;;;13.57;9.80;;;;;;;31.34;55.26;96953.25;5071571;28;20504;-66
2022/07/24 11:10:50;;;;;;;12.57;10.05;;;;;;;30.69;56.11;96943.81;5071322;28;20396;-68
2022/07/24 11:13:33;;;;;;;12.00;9.27;;;;;;;30.84;56.77;96943.72;5071449;28;20091;-67
2022/07/24 11:16:11;;;;;;;11.85;9.60;;;;;;;31.36;56.21;96939.38;5070693;28;20540;-68